Etusivu
METAR-TAF:

METAR-TAF

Lentoasemat :

Xi’an, Kiina

Xi’an Xianyangin kansainvälinen lentoasema

Leveyspiiri: 34-26N, Pituuspiiri: 108-45E, korkeus merenpinnasta: 479 m

Tämänhetkinen sää

Tämä raportti tehtiin 53 minuuttia sitten, kello 01.00 UTC
tyyntä
Lämpötila 1°C
Kosteus 75%
Ilmanpaine 1027 hPa
Näkyvyys: 5000 m
usvaa

METAR: ZLXY 250100Z 00000MPS 5000 HZ NSC 01/M03 Q1027 NOSIG

Aika: 09:53 (01:53 UTC)

Sääennuste

Tämä raportti tehtiin 6 tuntia ja 46 minuuttia sitten, kello 19.07 UTC
Ennuste voimassa 25. päivästä klo 00 UTC - 25. päivään klo 24 UTC
Tuuli 6 kn lounaasta
Näkyvyys: 3000 m
usvaa

TAF: ZLXY 241907Z 2500/2524 23003MPS 3000 HZ NSC TX13/2507Z TNM03/23Z

Säähavainnot ja -ennusteet yli 4000 lentoasemalta (METAR- ja TAF-raportit).

Käytössä olevat sääasemat on merkitty karttaan keltaisilla ja punaisilla pisteillä.

Aseta hiiri pisteen päälle nähdäksesi sääaseman nimen.

Klikkaa sitten nähdäksesi säähavainnot ja -ennusteet.

Kartan vaihtaminen: klikkaa mustalla rastilla varustettuja vihreitä pisteitä, niin voit zoomata sisään; viivalla varustettua vihreää pistettä, niin voit zoomata ulos tai vihreitä nuolia, niin pääset viereisille kartoille.


METAR-TAF: